Waverly, WA (99039)

10:30 PM PDT on July 28, 2015 (GMT -0700)
The Palouse in Plaza | | Change Station
CLOSE
Current Station
Personal Weather Station
Location: Rosalia, WA
Elevation: 2470 ft
Nearby Weather Stations

Elev 2470 ft 47.33 °N, 117.36 °W | Updated 11 seconds ago

Clear
Clear
63.3 °F
Feels Like 63.3 °F
N
0.0
Wind Variable Wind from NNW
Gusts 0.0 mph

Today
High -- | Low -- °F
--% Chance of Precip.
Yesterday
High -- | Low -- °F
Precip. -- in
5:22 AM 8:27 PM
Waxing Gibbous, 93% visible
Pressure 30.16 in
Visibility 10.0 miles
Clouds Few 10000 ft
Few 15000 ft
Dew Point 38 °F
Humidity 39%
Rainfall 0.00 in
Snow Depth Not available.
UV 0.0 out of 12
Pollen 5.20 out of 12
Air Quality Not available.
Flu Activity Not available.
METAR KGEG 290453Z 22006KT 10SM FEW100 FEW150 20/03 A3019 RMK AO2 SLP211 T02000028

More Conditions Fewer Conditions

Pressure 30.16 in
Visibility 10.0 miles
Clouds Few 10000 ft
Few 15000 ft
Dew Point 38 °F
Humidity 39%
Rainfall 0.00 in
Snow Depth Not available.
UV 0.0 out of 12
Pollen 5.20 out of 12
Air Quality Not available.
Flu Activity Not available.
METAR KGEG 290453Z 22006KT 10SM FEW100 FEW150 20/03 A3019 RMK AO2 SLP211 T02000028

More Conditions Fewer Conditions

10-Day Weather Forecast

×

Almanac

Astronomy

Jul. 28, 2015 Rise Set
Actual Time
Civil Twilight
Nautical Twilight
Astronomical Twilight
Moon
Length of Visible Light
Length of Day
Tomorrow will be .
, % of the Moon is Illuminated

Today's Extremes

State Highs State Lows

Community

WunderPhotos

Upload Photos

1,842,059 photos uploaded!

WunderBlogs® & News

Nearby

Air Quality

  Air Quality AQ Index Pollutant
Not available.

Snow Depth

Station Depth Elevation

Earthquake Activity

City Distance Mag. Time & Date
Minimum magnitude displayed is 2.5.

Coastal Water Temperatures

Place Temperature

Stations

Nearby Weather Stations

Station Location Temp. Windchill Dew Point Humidity Wind Precip. Elev Updated Type